sensor_id;sensor_type;location;lat;lon;timestamp;P1;durP1;ratioP1;P2;durP2;ratioP2
1999;SDS011;1001;48.87406500;9.59633600;2022-07-05T00:00:41;1.47;;;1.27;;
1999;SDS011;1001;48.87406500;9.59633600;2022-07-05T00:03:08;1.60;;;1.30;;
1999;SDS011;1001;48.87406500;9.59633600;2022-07-05T00:05:35;1.30;;;1.10;;
1999;SDS011;1001;48.87406500;9.59633600;2022-07-05T00:08:02;2.53;;;1.40;;
1999;SDS011;1001;48.87406500;9.59633600;2022-07-05T00:10:29;1.47;;;1.10;;
1999;SDS011;1001;48.87406500;9.59633600;2022-07-05T00:12:56;1.97;;;1.27;;
1999;SDS011;1001;48.87406500;9.59633600;2022-07-05T00:15:24;2.60;;;1.33;;
1999;SDS011;1001;48.87406500;9.59633600;2022-07-05T00:17:51;2.20;;;1.17;;
1999;SDS011;1001;48.87406500;9.59633600;2022-07-05T00:20:18;1.37;;;0.97;;
1999;SDS011;1001;48.87406500;9.59633600;2022-07-05T00:22:44;1.20;;;1.10;;
1999;SDS011;1001;48.87406500;9.59633600;2022-07-05T00:25:11;1.30;;;0.93;;
1999;SDS011;1001;48.87406500;9.59633600;2022-07-05T00:27:37;2.03;;;1.30;;
1999;SDS011;1001;48.87406500;9.59633600;2022-07-05T00:30:04;2.20;;;1.07;;
1999;SDS011;1001;48.87406500;9.59633600;2022-07-05T00:32:33;2.03;;;1.20;;
1999;SDS011;1001;48.87406500;9.59633600;2022-07-05T00:35:00;1.87;;;0.90;;
1999;SDS011;1001;48.87406500;9.59633600;2022-07-05T00:37:26;1.20;;;0.93;;
1999;SDS011;1001;48.87406500;9.59633600;2022-07-05T00:39:53;3.63;;;1.17;;
1999;SDS011;1001;48.87406500;9.59633600;2022-07-05T00:42:20;3.40;;;1.20;;
1999;SDS011;1001;48.87406500;9.59633600;2022-07-05T00:44:47;1.80;;;0.97;;
1999;SDS011;1001;48.87406500;9.59633600;2022-07-05T00:47:14;1.23;;;1.13;;
1999;SDS011;1001;48.87406500;9.59633600;2022-07-05T00:49:42;1.87;;;1.00;;
1999;SDS011;1001;48.87406500;9.59633600;2022-07-05T00:52:09;1.43;;;0.90;;
1999;SDS011;1001;48.87406500;9.59633600;2022-07-05T00:54:37;1.40;;;1.10;;
1999;SDS011;1001;48.87406500;9.59633600;2022-07-05T00:57:04;1.30;;;1.20;;
1999;SDS011;1001;48.87406500;9.59633600;2022-07-05T00:59:32;1.70;;;1.60;;
1999;SDS011;1001;48.87406500;9.59633600;2022-07-05T01:01:59;1.00;;;0.90;;
1999;SDS011;1001;48.87406500;9.59633600;2022-07-05T01:04:26;1.83;;;1.20;;
1999;SDS011;1001;48.87406500;9.59633600;2022-07-05T01:06:54;1.43;;;1.30;;
1999;SDS011;1001;48.87406500;9.59633600;2022-07-05T01:09:22;2.27;;;1.00;;
1999;SDS011;1001;48.87406500;9.59633600;2022-07-05T01:11:49;1.97;;;1.33;;
1999;SDS011;1001;48.87406500;9.59633600;2022-07-05T01:14:17;2.00;;;1.47;;
1999;SDS011;1001;48.87406500;9.59633600;2022-07-05T01:16:45;3.57;;;1.43;;
1999;SDS011;1001;48.87406500;9.59633600;2022-07-05T01:19:12;3.37;;;1.30;;
1999;SDS011;1001;48.87406500;9.59633600;2022-07-05T01:21:40;2.00;;;1.00;;
1999;SDS011;1001;48.87406500;9.59633600;2022-07-05T01:24:09;1.13;;;1.03;;
1999;SDS011;1001;48.87406500;9.59633600;2022-07-05T01:26:37;1.37;;;1.10;;
1999;SDS011;1001;48.87406500;9.59633600;2022-07-05T01:29:04;1.30;;;1.20;;
1999;SDS011;1001;48.87406500;9.59633600;2022-07-05T01:31:31;2.80;;;1.00;;
1999;SDS011;1001;48.87406500;9.59633600;2022-07-05T01:33:58;1.33;;;1.10;;
1999;SDS011;1001;48.87406500;9.59633600;2022-07-05T01:36:25;1.10;;;0.83;;
1999;SDS011;1001;48.87406500;9.59633600;2022-07-05T01:38:52;1.00;;;0.93;;
1999;SDS011;1001;48.87406500;9.59633600;2022-07-05T01:41:20;2.60;;;1.30;;
1999;SDS011;1001;48.87406500;9.59633600;2022-07-05T01:43:46;1.10;;;1.00;;
1999;SDS011;1001;48.87406500;9.59633600;2022-07-05T01:46:13;1.40;;;0.80;;
1999;SDS011;1001;48.87406500;9.59633600;2022-07-05T01:48:43;2.00;;;1.10;;
1999;SDS011;1001;48.87406500;9.59633600;2022-07-05T01:51:13;1.20;;;1.00;;
1999;SDS011;1001;48.87406500;9.59633600;2022-07-05T01:53:46;1.20;;;1.10;;
1999;SDS011;1001;48.87406500;9.59633600;2022-07-05T01:56:14;2.27;;;1.03;;
1999;SDS011;1001;48.87406500;9.59633600;2022-07-05T01:58:42;1.53;;;0.93;;
1999;SDS011;1001;48.87406500;9.59633600;2022-07-05T02:01:10;1.60;;;1.20;;
1999;SDS011;1001;48.87406500;9.59633600;2022-07-05T02:03:39;1.43;;;1.33;;
1999;SDS011;1001;48.87406500;9.59633600;2022-07-05T02:06:06;2.83;;;1.07;;
1999;SDS011;1001;48.87406500;9.59633600;2022-07-05T02:08:35;1.97;;;1.27;;
1999;SDS011;1001;48.87406500;9.59633600;2022-07-05T02:11:02;1.07;;;0.93;;
1999;SDS011;1001;48.87406500;9.59633600;2022-07-05T02:13:29;1.70;;;1.00;;
1999;SDS011;1001;48.87406500;9.59633600;2022-07-05T02:15:57;1.33;;;1.00;;
1999;SDS011;1001;48.87406500;9.59633600;2022-07-05T02:18:24;2.53;;;1.10;;
1999;SDS011;1001;48.87406500;9.59633600;2022-07-05T02:20:50;1.83;;;0.90;;
1999;SDS011;1001;48.87406500;9.59633600;2022-07-05T02:23:17;5.03;;;1.00;;
1999;SDS011;1001;48.87406500;9.59633600;2022-07-05T02:25:43;1.10;;;1.00;;
1999;SDS011;1001;48.87406500;9.59633600;2022-07-05T02:28:10;2.83;;;1.10;;
1999;SDS011;1001;48.87406500;9.59633600;2022-07-05T02:30:37;2.00;;;0.97;;
1999;SDS011;1001;48.87406500;9.59633600;2022-07-05T02:33:05;2.20;;;1.20;;
1999;SDS011;1001;48.87406500;9.59633600;2022-07-05T02:35:31;1.20;;;1.10;;
1999;SDS011;1001;48.87406500;9.59633600;2022-07-05T02:37:58;1.53;;;1.23;;
1999;SDS011;1001;48.87406500;9.59633600;2022-07-05T02:40:24;1.47;;;1.00;;
1999;SDS011;1001;48.87406500;9.59633600;2022-07-05T02:42:51;1.37;;;0.80;;
1999;SDS011;1001;48.87406500;9.59633600;2022-07-05T02:45:17;2.93;;;0.80;;
1999;SDS011;1001;48.87406500;9.59633600;2022-07-05T02:47:44;2.10;;;0.83;;
1999;SDS011;1001;48.87406500;9.59633600;2022-07-05T02:50:12;1.37;;;1.13;;
1999;SDS011;1001;48.87406500;9.59633600;2022-07-05T02:52:39;1.27;;;1.07;;
1999;SDS011;1001;48.87406500;9.59633600;2022-07-05T02:55:06;2.50;;;1.13;;
1999;SDS011;1001;48.87406500;9.59633600;2022-07-05T02:57:33;1.77;;;0.80;;
1999;SDS011;1001;48.87406500;9.59633600;2022-07-05T02:59:59;1.30;;;0.90;;
1999;SDS011;1001;48.87406500;9.59633600;2022-07-05T03:02:26;1.53;;;1.33;;
1999;SDS011;1001;48.87406500;9.59633600;2022-07-05T03:04:52;1.87;;;1.40;;
1999;SDS011;1001;48.87406500;9.59633600;2022-07-05T03:07:20;3.13;;;1.17;;
1999;SDS011;1001;48.87406500;9.59633600;2022-07-05T03:09:47;0.80;;;0.80;;
1999;SDS011;1001;48.87406500;9.59633600;2022-07-05T03:12:13;1.03;;;0.80;;
1999;SDS011;1001;48.87406500;9.59633600;2022-07-05T03:14:40;2.53;;;1.10;;
1999;SDS011;1001;48.87406500;9.59633600;2022-07-05T03:17:07;2.87;;;1.20;;
1999;SDS011;1001;48.87406500;9.59633600;2022-07-05T03:19:33;1.67;;;0.90;;
1999;SDS011;1001;48.87406500;9.59633600;2022-07-05T03:22:00;1.60;;;1.07;;
1999;SDS011;1001;48.87406500;9.59633600;2022-07-05T03:24:28;1.53;;;1.40;;
1999;SDS011;1001;48.87406500;9.59633600;2022-07-05T03:26:54;1.43;;;1.33;;
1999;SDS011;1001;48.87406500;9.59633600;2022-07-05T03:29:21;2.27;;;1.70;;
1999;SDS011;1001;48.87406500;9.59633600;2022-07-05T03:31:48;1.90;;;1.00;;
1999;SDS011;1001;48.87406500;9.59633600;2022-07-05T03:34:14;1.40;;;1.07;;
1999;SDS011;1001;48.87406500;9.59633600;2022-07-05T03:36:41;1.00;;;0.90;;
1999;SDS011;1001;48.87406500;9.59633600;2022-07-05T03:39:07;1.73;;;1.40;;
1999;SDS011;1001;48.87406500;9.59633600;2022-07-05T03:41:35;1.77;;;1.27;;
1999;SDS011;1001;48.87406500;9.59633600;2022-07-05T03:44:02;2.30;;;1.23;;
1999;SDS011;1001;48.87406500;9.59633600;2022-07-05T03:46:29;1.90;;;1.30;;
1999;SDS011;1001;48.87406500;9.59633600;2022-07-05T03:48:56;1.50;;;1.20;;
1999;SDS011;1001;48.87406500;9.59633600;2022-07-05T03:51:22;1.50;;;1.40;;
1999;SDS011;1001;48.87406500;9.59633600;2022-07-05T03:53:49;1.67;;;1.30;;
1999;SDS011;1001;48.87406500;9.59633600;2022-07-05T03:56:15;2.20;;;1.33;;
1999;SDS011;1001;48.87406500;9.59633600;2022-07-05T03:58:46;1.07;;;0.97;;
1999;SDS011;1001;48.87406500;9.59633600;2022-07-05T04:01:13;3.33;;;1.20;;
1999;SDS011;1001;48.87406500;9.59633600;2022-07-05T04:03:39;1.97;;;1.27;;
1999;SDS011;1001;48.87406500;9.59633600;2022-07-05T04:06:06;1.23;;;1.13;;
1999;SDS011;1001;48.87406500;9.59633600;2022-07-05T04:08:33;2.50;;;1.37;;
1999;SDS011;1001;48.87406500;9.59633600;2022-07-05T04:11:00;1.73;;;1.00;;
1999;SDS011;1001;48.87406500;9.59633600;2022-07-05T04:13:26;1.30;;;0.97;;
1999;SDS011;1001;48.87406500;9.59633600;2022-07-05T04:15:55;2.03;;;1.13;;
1999;SDS011;1001;48.87406500;9.59633600;2022-07-05T04:18:21;1.50;;;1.00;;
1999;SDS011;1001;48.87406500;9.59633600;2022-07-05T04:20:48;1.53;;;1.30;;
1999;SDS011;1001;48.87406500;9.59633600;2022-07-05T04:23:15;2.03;;;1.10;;
1999;SDS011;1001;48.87406500;9.59633600;2022-07-05T04:25:41;2.90;;;1.87;;
1999;SDS011;1001;48.87406500;9.59633600;2022-07-05T04:28:08;1.20;;;1.03;;
1999;SDS011;1001;48.87406500;9.59633600;2022-07-05T04:30:34;2.07;;;1.37;;
1999;SDS011;1001;48.87406500;9.59633600;2022-07-05T04:33:02;4.67;;;1.23;;
1999;SDS011;1001;48.87406500;9.59633600;2022-07-05T04:35:29;2.40;;;1.30;;
1999;SDS011;1001;48.87406500;9.59633600;2022-07-05T04:37:56;3.67;;;2.00;;
1999;SDS011;1001;48.87406500;9.59633600;2022-07-05T04:40:22;2.30;;;1.97;;
1999;SDS011;1001;48.87406500;9.59633600;2022-07-05T04:42:49;4.00;;;1.93;;
1999;SDS011;1001;48.87406500;9.59633600;2022-07-05T04:45:15;6.23;;;2.47;;
1999;SDS011;1001;48.87406500;9.59633600;2022-07-05T04:47:42;2.30;;;1.97;;
1999;SDS011;1001;48.87406500;9.59633600;2022-07-05T04:50:10;2.13;;;1.90;;
1999;SDS011;1001;48.87406500;9.59633600;2022-07-05T04:52:37;6.90;;;2.30;;
1999;SDS011;1001;48.87406500;9.59633600;2022-07-05T04:55:04;4.30;;;1.97;;
1999;SDS011;1001;48.87406500;9.59633600;2022-07-05T04:57:35;2.73;;;1.90;;
1999;SDS011;1001;48.87406500;9.59633600;2022-07-05T05:00:03;2.63;;;2.13;;
1999;SDS011;1001;48.87406500;9.59633600;2022-07-05T05:02:30;2.07;;;1.97;;
1999;SDS011;1001;48.87406500;9.59633600;2022-07-05T05:04:57;2.30;;;2.10;;
1999;SDS011;1001;48.87406500;9.59633600;2022-07-05T05:07:25;3.80;;;2.70;;
1999;SDS011;1001;48.87406500;9.59633600;2022-07-05T05:09:51;3.73;;;3.03;;
1999;SDS011;1001;48.87406500;9.59633600;2022-07-05T05:12:18;2.50;;;2.30;;
1999;SDS011;1001;48.87406500;9.59633600;2022-07-05T05:14:45;2.70;;;2.50;;
1999;SDS011;1001;48.87406500;9.59633600;2022-07-05T05:17:11;3.13;;;2.57;;
1999;SDS011;1001;48.87406500;9.59633600;2022-07-05T05:19:38;3.97;;;2.53;;
1999;SDS011;1001;48.87406500;9.59633600;2022-07-05T05:22:04;6.33;;;2.60;;
1999;SDS011;1001;48.87406500;9.59633600;2022-07-05T05:24:32;4.33;;;2.10;;
1999;SDS011;1001;48.87406500;9.59633600;2022-07-05T05:26:59;2.40;;;2.20;;
1999;SDS011;1001;48.87406500;9.59633600;2022-07-05T05:29:26;1.70;;;1.60;;
1999;SDS011;1001;48.87406500;9.59633600;2022-07-05T05:31:53;1.97;;;1.77;;
1999;SDS011;1001;48.87406500;9.59633600;2022-07-05T05:34:20;1.40;;;1.20;;
1999;SDS011;1001;48.87406500;9.59633600;2022-07-05T05:36:47;1.57;;;1.17;;
1999;SDS011;1001;48.87406500;9.59633600;2022-07-05T05:39:13;1.63;;;1.53;;
1999;SDS011;1001;48.87406500;9.59633600;2022-07-05T05:41:41;3.10;;;1.33;;
1999;SDS011;1001;48.87406500;9.59633600;2022-07-05T05:44:08;1.07;;;0.97;;
1999;SDS011;1001;48.87406500;9.59633600;2022-07-05T05:46:35;1.20;;;0.80;;
1999;SDS011;1001;48.87406500;9.59633600;2022-07-05T05:49:01;2.70;;;1.17;;
1999;SDS011;1001;48.87406500;9.59633600;2022-07-05T05:51:28;1.10;;;1.00;;
1999;SDS011;1001;48.87406500;9.59633600;2022-07-05T05:53:55;2.77;;;0.90;;
1999;SDS011;1001;48.87406500;9.59633600;2022-07-05T05:56:21;0.87;;;0.80;;
1999;SDS011;1001;48.87406500;9.59633600;2022-07-05T05:58:49;2.73;;;1.20;;
1999;SDS011;1001;48.87406500;9.59633600;2022-07-05T06:01:16;1.40;;;1.10;;
1999;SDS011;1001;48.87406500;9.59633600;2022-07-05T06:03:43;2.27;;;1.30;;
1999;SDS011;1001;48.87406500;9.59633600;2022-07-05T06:06:09;2.90;;;1.10;;
1999;SDS011;1001;48.87406500;9.59633600;2022-07-05T06:08:36;3.83;;;1.03;;
1999;SDS011;1001;48.87406500;9.59633600;2022-07-05T06:11:02;3.23;;;0.93;;
1999;SDS011;1001;48.87406500;9.59633600;2022-07-05T06:13:30;1.57;;;1.10;;
1999;SDS011;1001;48.87406500;9.59633600;2022-07-05T06:15:58;2.00;;;1.03;;
1999;SDS011;1001;48.87406500;9.59633600;2022-07-05T06:18:25;2.50;;;1.00;;
1999;SDS011;1001;48.87406500;9.59633600;2022-07-05T06:20:52;0.83;;;0.73;;
1999;SDS011;1001;48.87406500;9.59633600;2022-07-05T06:23:18;7.27;;;1.23;;
1999;SDS011;1001;48.87406500;9.59633600;2022-07-05T06:25:45;3.40;;;1.70;;
1999;SDS011;1001;48.87406500;9.59633600;2022-07-05T06:28:11;1.97;;;1.60;;
1999;SDS011;1001;48.87406500;9.59633600;2022-07-05T06:30:38;2.20;;;2.00;;
1999;SDS011;1001;48.87406500;9.59633600;2022-07-05T06:33:06;5.47;;;1.70;;
1999;SDS011;1001;48.87406500;9.59633600;2022-07-05T06:35:33;1.90;;;1.80;;
1999;SDS011;1001;48.87406500;9.59633600;2022-07-05T06:38:01;1.60;;;1.50;;
1999;SDS011;1001;48.87406500;9.59633600;2022-07-05T06:40:29;2.20;;;1.53;;
1999;SDS011;1001;48.87406500;9.59633600;2022-07-05T06:42:58;2.27;;;1.63;;
1999;SDS011;1001;48.87406500;9.59633600;2022-07-05T06:45:26;4.43;;;1.70;;
1999;SDS011;1001;48.87406500;9.59633600;2022-07-05T06:47:56;4.90;;;2.20;;
1999;SDS011;1001;48.87406500;9.59633600;2022-07-05T06:50:25;1.70;;;1.60;;
1999;SDS011;1001;48.87406500;9.59633600;2022-07-05T06:52:52;2.27;;;1.70;;
1999;SDS011;1001;48.87406500;9.59633600;2022-07-05T06:55:20;1.63;;;1.53;;
1999;SDS011;1001;48.87406500;9.59633600;2022-07-05T06:57:47;1.93;;;1.83;;
1999;SDS011;1001;48.87406500;9.59633600;2022-07-05T07:00:13;2.40;;;2.20;;
1999;SDS011;1001;48.87406500;9.59633600;2022-07-05T07:02:41;3.23;;;2.00;;
1999;SDS011;1001;48.87406500;9.59633600;2022-07-05T07:05:07;2.30;;;2.10;;
1999;SDS011;1001;48.87406500;9.59633600;2022-07-05T07:07:36;2.30;;;1.97;;
1999;SDS011;1001;48.87406500;9.59633600;2022-07-05T07:10:16;2.77;;;1.90;;
1999;SDS011;1001;48.87406500;9.59633600;2022-07-05T07:12:43;2.40;;;2.20;;
1999;SDS011;1001;48.87406500;9.59633600;2022-07-05T07:15:10;2.70;;;1.57;;
1999;SDS011;1001;48.87406500;9.59633600;2022-07-05T07:17:36;2.17;;;2.03;;
1999;SDS011;1001;48.87406500;9.59633600;2022-07-05T07:20:03;3.03;;;2.20;;
1999;SDS011;1001;48.87406500;9.59633600;2022-07-05T07:22:31;1.90;;;1.80;;
1999;SDS011;1001;48.87406500;9.59633600;2022-07-05T07:24:59;4.43;;;1.77;;
1999;SDS011;1001;48.87406500;9.59633600;2022-07-05T07:27:25;2.50;;;1.90;;
1999;SDS011;1001;48.87406500;9.59633600;2022-07-05T07:29:52;4.50;;;1.50;;
1999;SDS011;1001;48.87406500;9.59633600;2022-07-05T07:32:18;3.30;;;2.10;;
1999;SDS011;1001;48.87406500;9.59633600;2022-07-05T07:34:45;2.13;;;1.73;;
1999;SDS011;1001;48.87406500;9.59633600;2022-07-05T07:37:12;2.00;;;1.43;;
1999;SDS011;1001;48.87406500;9.59633600;2022-07-05T07:39:39;3.00;;;1.50;;
1999;SDS011;1001;48.87406500;9.59633600;2022-07-05T07:42:08;1.93;;;1.47;;
1999;SDS011;1001;48.87406500;9.59633600;2022-07-05T07:44:35;1.70;;;1.43;;
1999;SDS011;1001;48.87406500;9.59633600;2022-07-05T07:47:01;2.37;;;1.30;;
1999;SDS011;1001;48.87406500;9.59633600;2022-07-05T07:49:28;1.70;;;1.60;;
1999;SDS011;1001;48.87406500;9.59633600;2022-07-05T07:51:54;2.40;;;1.07;;
1999;SDS011;1001;48.87406500;9.59633600;2022-07-05T07:54:21;1.93;;;1.20;;
1999;SDS011;1001;48.87406500;9.59633600;2022-07-05T07:56:48;1.63;;;1.40;;
1999;SDS011;1001;48.87406500;9.59633600;2022-07-05T07:59:16;1.60;;;1.00;;
1999;SDS011;1001;48.87406500;9.59633600;2022-07-05T08:01:43;1.90;;;1.43;;
1999;SDS011;1001;48.87406500;9.59633600;2022-07-05T08:04:09;3.63;;;1.40;;
1999;SDS011;1001;48.87406500;9.59633600;2022-07-05T08:06:37;5.00;;;1.20;;
1999;SDS011;1001;48.87406500;9.59633600;2022-07-05T08:09:04;2.13;;;1.20;;
1999;SDS011;1001;48.87406500;9.59633600;2022-07-05T08:11:31;3.27;;;1.30;;
1999;SDS011;1001;48.87406500;9.59633600;2022-07-05T08:13:57;1.63;;;1.50;;
1999;SDS011;1001;48.87406500;9.59633600;2022-07-05T08:16:25;1.83;;;1.20;;
1999;SDS011;1001;48.87406500;9.59633600;2022-07-05T08:18:52;2.37;;;1.60;;
1999;SDS011;1001;48.87406500;9.59633600;2022-07-05T08:21:36;4.23;;;1.70;;
1999;SDS011;1001;48.87406500;9.59633600;2022-07-05T08:24:04;1.70;;;1.60;;
1999;SDS011;1001;48.87406500;9.59633600;2022-07-05T08:26:32;1.70;;;1.60;;
1999;SDS011;1001;48.87406500;9.59633600;2022-07-05T08:29:00;1.90;;;1.27;;
1999;SDS011;1001;48.87406500;9.59633600;2022-07-05T08:31:29;4.67;;;1.87;;
1999;SDS011;1001;48.87406500;9.59633600;2022-07-05T08:33:58;2.90;;;1.50;;
1999;SDS011;1001;48.87406500;9.59633600;2022-07-05T08:36:25;1.53;;;1.30;;
1999;SDS011;1001;48.87406500;9.59633600;2022-07-05T08:38:52;2.83;;;1.43;;
1999;SDS011;1001;48.87406500;9.59633600;2022-07-05T08:41:19;2.83;;;1.80;;
1999;SDS011;1001;48.87406500;9.59633600;2022-07-05T08:43:47;4.07;;;2.03;;
1999;SDS011;1001;48.87406500;9.59633600;2022-07-05T08:46:15;2.80;;;1.70;;
1999;SDS011;1001;48.87406500;9.59633600;2022-07-05T08:48:45;6.20;;;1.90;;
1999;SDS011;1001;48.87406500;9.59633600;2022-07-05T08:51:15;3.00;;;1.63;;
1999;SDS011;1001;48.87406500;9.59633600;2022-07-05T08:53:46;2.73;;;1.73;;
1999;SDS011;1001;48.87406500;9.59633600;2022-07-05T08:56:13;2.70;;;1.50;;
1999;SDS011;1001;48.87406500;9.59633600;2022-07-05T08:58:41;1.97;;;1.47;;
1999;SDS011;1001;48.87406500;9.59633600;2022-07-05T09:01:08;2.00;;;1.60;;
1999;SDS011;1001;48.87406500;9.59633600;2022-07-05T09:03:37;2.90;;;1.53;;
1999;SDS011;1001;48.87406500;9.59633600;2022-07-05T09:06:08;2.87;;;1.77;;
1999;SDS011;1001;48.87406500;9.59633600;2022-07-05T09:08:37;1.77;;;1.60;;
1999;SDS011;1001;48.87406500;9.59633600;2022-07-05T09:11:06;4.80;;;1.60;;
1999;SDS011;1001;48.87406500;9.59633600;2022-07-05T09:13:34;2.00;;;1.70;;
1999;SDS011;1001;48.87406500;9.59633600;2022-07-05T09:16:01;4.37;;;2.00;;
1999;SDS011;1001;48.87406500;9.59633600;2022-07-05T09:18:41;4.37;;;1.70;;
1999;SDS011;1001;48.87406500;9.59633600;2022-07-05T09:21:13;1.70;;;1.60;;
1999;SDS011;1001;48.87406500;9.59633600;2022-07-05T09:23:41;1.63;;;1.53;;
1999;SDS011;1001;48.87406500;9.59633600;2022-07-05T09:26:08;1.60;;;1.50;;
1999;SDS011;1001;48.87406500;9.59633600;2022-07-05T09:28:35;1.87;;;1.63;;
1999;SDS011;1001;48.87406500;9.59633600;2022-07-05T09:31:02;2.33;;;1.70;;
1999;SDS011;1001;48.87406500;9.59633600;2022-07-05T09:33:29;1.20;;;1.10;;
1999;SDS011;1001;48.87406500;9.59633600;2022-07-05T09:35:56;2.00;;;1.30;;
1999;SDS011;1001;48.87406500;9.59633600;2022-07-05T09:38:25;1.20;;;1.10;;
1999;SDS011;1001;48.87406500;9.59633600;2022-07-05T09:40:53;2.73;;;1.20;;
1999;SDS011;1001;48.87406500;9.59633600;2022-07-05T09:43:21;0.80;;;0.80;;
1999;SDS011;1001;48.87406500;9.59633600;2022-07-05T09:45:55;1.10;;;0.90;;
1999;SDS011;1001;48.87406500;9.59633600;2022-07-05T09:48:23;1.90;;;1.10;;
1999;SDS011;1001;48.87406500;9.59633600;2022-07-05T09:50:50;1.80;;;1.20;;
1999;SDS011;1001;48.87406500;9.59633600;2022-07-05T09:53:17;1.53;;;1.10;;
1999;SDS011;1001;48.87406500;9.59633600;2022-07-05T09:55:50;1.50;;;1.20;;
1999;SDS011;1001;48.87406500;9.59633600;2022-07-05T09:58:27;1.20;;;1.10;;
1999;SDS011;1001;48.87406500;9.59633600;2022-07-05T10:00:53;1.30;;;0.90;;
1999;SDS011;1001;48.87406500;9.59633600;2022-07-05T10:03:20;2.60;;;0.80;;
1999;SDS011;1001;48.87406500;9.59633600;2022-07-05T10:05:46;2.13;;;1.00;;
1999;SDS011;1001;48.87406500;9.59633600;2022-07-05T10:08:13;2.17;;;1.00;;
1999;SDS011;1001;48.87406500;9.59633600;2022-07-05T10:10:41;1.17;;;0.90;;
1999;SDS011;1001;48.87406500;9.59633600;2022-07-05T10:13:14;0.80;;;0.80;;
1999;SDS011;1001;48.87406500;9.59633600;2022-07-05T10:15:40;2.77;;;1.07;;
1999;SDS011;1001;48.87406500;9.59633600;2022-07-05T10:18:11;2.10;;;1.27;;
1999;SDS011;1001;48.87406500;9.59633600;2022-07-05T10:20:39;2.90;;;1.20;;
1999;SDS011;1001;48.87406500;9.59633600;2022-07-05T10:23:08;1.83;;;1.40;;
1999;SDS011;1001;48.87406500;9.59633600;2022-07-05T10:25:36;3.00;;;1.30;;
1999;SDS011;1001;48.87406500;9.59633600;2022-07-05T10:28:05;5.23;;;1.00;;
1999;SDS011;1001;48.87406500;9.59633600;2022-07-05T10:30:34;3.00;;;1.70;;
1999;SDS011;1001;48.87406500;9.59633600;2022-07-05T10:33:01;5.37;;;1.37;;
1999;SDS011;1001;48.87406500;9.59633600;2022-07-05T10:35:30;1.57;;;1.10;;
1999;SDS011;1001;48.87406500;9.59633600;2022-07-05T10:37:56;1.17;;;1.07;;
1999;SDS011;1001;48.87406500;9.59633600;2022-07-05T10:40:25;1.80;;;1.23;;
1999;SDS011;1001;48.87406500;9.59633600;2022-07-05T10:42:54;2.60;;;1.20;;
1999;SDS011;1001;48.87406500;9.59633600;2022-07-05T10:45:25;1.10;;;1.00;;
1999;SDS011;1001;48.87406500;9.59633600;2022-07-05T10:50:47;1.73;;;1.37;;
1999;SDS011;1001;48.87406500;9.59633600;2022-07-05T10:53:16;2.40;;;1.13;;
1999;SDS011;1001;48.87406500;9.59633600;2022-07-05T10:58:37;2.50;;;1.40;;
1999;SDS011;1001;48.87406500;9.59633600;2022-07-05T11:06:55;2.80;;;1.23;;
1999;SDS011;1001;48.87406500;9.59633600;2022-07-05T11:09:22;4.10;;;1.20;;
1999;SDS011;1001;48.87406500;9.59633600;2022-07-05T11:12:05;1.20;;;1.10;;
1999;SDS011;1001;48.87406500;9.59633600;2022-07-05T11:14:33;0.90;;;0.90;;
1999;SDS011;1001;48.87406500;9.59633600;2022-07-05T11:17:10;2.37;;;1.10;;
1999;SDS011;1001;48.87406500;9.59633600;2022-07-05T11:20:00;2.93;;;1.33;;
1999;SDS011;1001;48.87406500;9.59633600;2022-07-05T11:22:29;2.63;;;1.27;;
1999;SDS011;1001;48.87406500;9.59633600;2022-07-05T11:24:56;2.00;;;1.63;;
1999;SDS011;1001;48.87406500;9.59633600;2022-07-05T11:27:25;1.33;;;1.23;;
1999;SDS011;1001;48.87406500;9.59633600;2022-07-05T11:29:52;2.40;;;0.93;;
1999;SDS011;1001;48.87406500;9.59633600;2022-07-05T11:32:21;1.93;;;1.00;;
1999;SDS011;1001;48.87406500;9.59633600;2022-07-05T11:34:50;2.70;;;0.87;;
1999;SDS011;1001;48.87406500;9.59633600;2022-07-05T11:37:19;5.70;;;1.20;;
1999;SDS011;1001;48.87406500;9.59633600;2022-07-05T11:42:53;1.50;;;1.03;;
1999;SDS011;1001;48.87406500;9.59633600;2022-07-05T11:45:19;1.17;;;1.00;;
1999;SDS011;1001;48.87406500;9.59633600;2022-07-05T11:47:46;2.63;;;1.10;;
1999;SDS011;1001;48.87406500;9.59633600;2022-07-05T11:50:13;2.13;;;1.07;;
1999;SDS011;1001;48.87406500;9.59633600;2022-07-05T11:52:42;4.10;;;1.03;;
1999;SDS011;1001;48.87406500;9.59633600;2022-07-05T11:55:09;3.30;;;1.20;;
1999;SDS011;1001;48.87406500;9.59633600;2022-07-05T11:57:37;1.00;;;0.80;;
1999;SDS011;1001;48.87406500;9.59633600;2022-07-05T12:00:14;1.20;;;1.07;;
1999;SDS011;1001;48.87406500;9.59633600;2022-07-05T12:02:51;2.70;;;1.10;;
1999;SDS011;1001;48.87406500;9.59633600;2022-07-05T12:05:18;1.73;;;1.10;;
1999;SDS011;1001;48.87406500;9.59633600;2022-07-05T12:07:49;1.57;;;1.10;;
1999;SDS011;1001;48.87406500;9.59633600;2022-07-05T12:10:16;1.63;;;1.23;;
1999;SDS011;1001;48.87406500;9.59633600;2022-07-05T12:13:03;2.30;;;1.17;;
1999;SDS011;1001;48.87406500;9.59633600;2022-07-05T12:15:30;2.00;;;1.50;;
1999;SDS011;1001;48.87406500;9.59633600;2022-07-05T12:17:59;1.67;;;1.40;;
1999;SDS011;1001;48.87406500;9.59633600;2022-07-05T12:20:28;1.73;;;1.30;;
1999;SDS011;1001;48.87406500;9.59633600;2022-07-05T12:22:57;1.40;;;0.90;;
1999;SDS011;1001;48.87406500;9.59633600;2022-07-05T12:25:25;3.67;;;1.20;;
1999;SDS011;1001;48.87406500;9.59633600;2022-07-05T12:27:53;1.80;;;1.70;;
1999;SDS011;1001;48.87406500;9.59633600;2022-07-05T12:30:22;2.13;;;1.00;;
1999;SDS011;1001;48.87406500;9.59633600;2022-07-05T12:32:52;1.87;;;1.30;;
1999;SDS011;1001;48.87406500;9.59633600;2022-07-05T12:35:30;2.03;;;0.93;;
1999;SDS011;1001;48.87406500;9.59633600;2022-07-05T12:38:03;1.30;;;1.20;;
1999;SDS011;1001;48.87406500;9.59633600;2022-07-05T12:40:31;3.00;;;1.10;;
1999;SDS011;1001;48.87406500;9.59633600;2022-07-05T12:43:02;1.20;;;1.03;;
1999;SDS011;1001;48.87406500;9.59633600;2022-07-05T12:45:31;3.47;;;1.20;;
1999;SDS011;1001;48.87406500;9.59633600;2022-07-05T12:47:59;1.60;;;0.93;;
1999;SDS011;1001;48.87406500;9.59633600;2022-07-05T12:50:28;2.30;;;1.17;;
1999;SDS011;1001;48.87406500;9.59633600;2022-07-05T12:52:56;2.90;;;0.97;;
1999;SDS011;1001;48.87406500;9.59633600;2022-07-05T12:55:25;2.33;;;0.93;;
1999;SDS011;1001;48.87406500;9.59633600;2022-07-05T12:58:17;3.27;;;1.23;;
1999;SDS011;1001;48.87406500;9.59633600;2022-07-05T13:00:44;1.67;;;0.97;;
1999;SDS011;1001;48.87406500;9.59633600;2022-07-05T13:03:11;2.57;;;1.10;;
1999;SDS011;1001;48.87406500;9.59633600;2022-07-05T13:05:38;1.43;;;1.00;;
1999;SDS011;1001;48.87406500;9.59633600;2022-07-05T13:08:04;2.07;;;1.30;;
1999;SDS011;1001;48.87406500;9.59633600;2022-07-05T13:10:32;3.07;;;1.13;;
1999;SDS011;1001;48.87406500;9.59633600;2022-07-05T13:12:59;5.93;;;1.03;;
1999;SDS011;1001;48.87406500;9.59633600;2022-07-05T13:15:27;1.37;;;0.80;;
1999;SDS011;1001;48.87406500;9.59633600;2022-07-05T13:17:53;2.10;;;1.10;;
1999;SDS011;1001;48.87406500;9.59633600;2022-07-05T13:20:20;3.70;;;1.27;;
1999;SDS011;1001;48.87406500;9.59633600;2022-07-05T13:22:48;1.10;;;1.00;;
1999;SDS011;1001;48.87406500;9.59633600;2022-07-05T13:25:15;2.73;;;1.07;;
1999;SDS011;1001;48.87406500;9.59633600;2022-07-05T13:27:43;2.63;;;1.23;;
1999;SDS011;1001;48.87406500;9.59633600;2022-07-05T13:30:10;1.60;;;1.10;;